Time;durP1;ratioP1;P1;durP2;ratioP2;P2;SDS_P1;SDS_P2;PMS_P1;PMS_P2;Temp;Humidity;BMP_temperature;BMP_pressure;BME280_temperature;BME280_humidity;BME280_pressure;Samples;Min_cycle;Max_cycle;Signal;HPM_P1;HPM_P2
2023/09/27 00:00:30;;;;;;;14.25;12.18;;;17.90;99.90;;;;;;6122051;23;20010;-67
2023/09/27 00:02:57;;;;;;;14.52;12.70;;;18.70;99.90;;;;;;6120970;23;20329;-67
2023/09/27 00:05:23;;;;;;;16.23;12.63;;;18.20;99.90;;;;;;6121786;23;20048;-67
2023/09/27 00:07:51;;;;;;;17.77;12.35;;;19.10;99.90;;;;;;6120654;23;20092;-67
2023/09/27 00:10:17;;;;;;;14.05;12.45;;;18.70;99.90;;;;;;6122454;23;20024;-67
2023/09/27 00:12:45;;;;;;;15.30;12.07;;;18.40;99.90;;;;;;6123138;23;20628;-67
2023/09/27 00:15:12;;;;;;;14.85;12.43;;;18.70;99.90;;;;;;6120615;23;20014;-67
2023/09/27 00:17:39;;;;;;;16.50;11.80;;;18.00;99.90;;;;;;6120253;23;20085;-68
2023/09/27 00:20:09;;;;;;;15.10;12.20;;;18.80;99.90;;;;;;6120816;23;20092;-67
2023/09/27 00:22:34;;;;;;;14.68;12.38;;;17.80;99.90;;;;;;6096441;23;20014;-67
2023/09/27 00:25:00;;;;;;;13.80;12.18;;;19.20;99.90;;;;;;6122346;23;20065;-67
2023/09/27 00:27:26;;;;;;;16.33;12.55;;;18.60;99.90;;;;;;6121776;23;20014;-67
2023/09/27 00:29:52;;;;;;;13.60;12.18;;;19.10;99.90;;;;;;6120674;23;20198;-67
2023/09/27 00:32:18;;;;;;;13.85;11.43;;;18.80;99.90;;;;;;6120770;23;20018;-67
2023/09/27 00:34:44;;;;;;;14.35;11.75;;;17.90;99.90;;;;;;6123072;23;20025;-67
2023/09/27 00:37:09;;;;;;;12.15;10.80;;;18.20;99.90;;;;;;6121690;23;20013;-67
2023/09/27 00:39:36;;;;;;;16.55;11.75;;;18.90;99.90;;;;;;6121710;23;20104;-67
2023/09/27 00:42:02;;;;;;;13.95;11.18;;;18.80;99.90;;;;;;6121149;23;20325;-67
2023/09/27 00:44:27;;;;;;;14.13;11.30;;;18.10;99.90;;;;;;6123623;23;20077;-67
2023/09/27 00:46:53;;;;;;;12.50;11.00;;;17.90;99.90;;;;;;6122603;23;20025;-67
2023/09/27 00:49:20;;;;;;;13.63;10.88;;;18.80;99.90;;;;;;6120766;23;20013;-67
2023/09/27 00:51:45;;;;;;;12.98;10.88;;;18.50;99.90;;;;;;6123474;23;20010;-67
2023/09/27 00:54:12;;;;;;;15.65;11.85;;;18.60;99.90;;;;;;6096765;23;20029;-67
2023/09/27 00:56:38;;;;;;;14.52;11.27;;;18.50;99.90;;;;;;6123220;23;20490;-67
2023/09/27 00:59:05;;;;;;;15.88;11.57;;;18.60;99.90;;;;;;6120852;23;20018;-67
2023/09/27 01:01:31;;;;;;;13.73;10.85;;;18.50;99.90;;;;;;6121955;23;20006;-67
2023/09/27 01:03:58;;;;;;;14.10;10.98;;;17.60;99.90;;;;;;6121378;23;20018;-67
2023/09/27 01:06:25;;;;;;;16.10;11.35;;;18.70;99.90;;;;;;6120477;23;20530;-67
2023/09/27 01:08:50;;;;;;;17.48;12.20;;;18.60;99.90;;;;;;6122193;23;20013;-67
2023/09/27 01:11:17;;;;;;;14.10;10.60;;;18.40;99.90;;;;;;6121084;23;20040;-67
2023/09/27 01:13:43;;;;;;;12.48;11.07;;;17.70;99.90;;;;;;6121092;23;20081;-67
2023/09/27 01:16:09;;;;;;;14.93;12.68;;;18.80;99.90;;;;;;6120489;23;20411;-67
2023/09/27 01:18:34;;;;;;;13.32;11.93;;;17.90;99.90;;;;;;6120646;23;20018;-67
2023/09/27 01:21:01;;;;;;;12.82;11.30;;;18.40;99.90;;;;;;6120768;23;20348;-67
2023/09/27 01:23:28;;;;;;;14.65;11.93;;;17.70;99.90;;;;;;6121812;23;20058;-67
2023/09/27 01:26:01;;;;;;;13.25;11.90;;;17.90;99.90;;;;;;6120900;23;20145;-67
2023/09/27 01:28:29;;;;;;;15.55;12.57;;;18.10;99.90;;;;;;6120787;23;20202;-67
2023/09/27 01:30:54;;;;;;;13.68;12.23;;;17.80;99.90;;;;;;6121994;23;20010;-67
2023/09/27 01:33:20;;;;;;;15.40;12.40;;;18.60;99.90;;;;;;6096077;23;20510;-67
2023/09/27 01:35:46;;;;;;;16.02;11.95;;;18.50;99.90;;;;;;6122518;23;20033;-67
2023/09/27 01:38:12;;;;;;;14.27;12.77;;;18.50;99.90;;;;;;6122654;23;20060;-67
2023/09/27 01:40:45;;;;;;;15.45;11.30;;;17.60;99.90;;;;;;6124443;23;20006;-68
2023/09/27 01:43:11;;;;;;;13.85;12.18;;;18.00;99.90;;;;;;6122450;23;20025;-67
2023/09/27 01:45:38;;;;;;;14.90;11.70;;;18.20;99.90;;;;;;6123752;23;20014;-67
2023/09/27 01:48:04;;;;;;;14.35;12.60;;;18.40;99.90;;;;;;6123127;23;20029;-67
2023/09/27 01:50:33;;;;;;;15.25;13.07;;;17.80;99.90;;;;;;6123599;23;20017;-67
2023/09/27 01:52:59;;;;;;;13.75;12.10;;;18.70;99.90;;;;;;6097916;23;20014;-67
2023/09/27 01:55:25;;;;;;;14.43;12.80;;;17.90;99.90;;;;;;6122047;23;20081;-67
2023/09/27 01:57:52;;;;;;;13.18;11.77;;;18.20;99.90;;;;;;6123173;23;20053;-67
2023/09/27 02:00:19;;;;;;;14.73;13.05;;;17.90;99.90;;;;;;6119606;23;20231;-67
2023/09/27 02:02:48;;;;;;;13.95;11.93;;;17.70;99.90;;;;;;6123452;23;20080;-67
2023/09/27 02:05:14;;;;;;;14.23;11.52;;;17.20;99.90;;;;;;6123672;23;20014;-67
2023/09/27 02:07:40;;;;;;;15.70;11.45;;;18.30;99.90;;;;;;6123166;23;20347;-67
2023/09/27 02:10:15;;;;;;;13.15;11.82;;;18.30;99.90;;;;;;6096943;23;20069;-67
2023/09/27 02:12:41;;;;;;;14.35;12.32;;;17.50;99.90;;;;;;6098169;23;20018;-67
2023/09/27 02:15:08;;;;;;;14.05;11.88;;;17.80;99.90;;;;;;6073763;23;20404;-67
2023/09/27 02:17:38;;;;;;;14.18;12.10;;;18.30;99.90;;;;;;6098027;23;20362;-67
2023/09/27 02:20:07;;;;;;;14.55;12.45;;;18.30;99.90;;;;;;6096751;23;20024;-67
2023/09/27 02:22:36;;;;;;;13.57;12.10;;;17.30;99.90;;;;;;6124583;23;20024;-67
2023/09/27 02:25:05;;;;;;;15.30;12.27;;;18.30;99.90;;;;;;6123099;23;20017;-67
2023/09/27 02:27:31;;;;;;;14.60;11.70;;;17.40;99.90;;;;;;6122497;23;20021;-67
2023/09/27 02:29:56;;;;;;;14.52;13.02;;;17.30;99.90;;;;;;6073531;23;20421;-68
2023/09/27 02:32:22;;;;;;;16.10;11.75;;;17.10;99.90;;;;;;6123114;23;20057;-68
2023/09/27 02:34:48;;;;;;;13.35;11.77;;;17.50;99.90;;;;;;6123767;23;20014;-67
2023/09/27 02:37:15;;;;;;;13.57;12.18;;;17.10;99.90;;;;;;6121764;23;20068;-68
2023/09/27 02:39:42;;;;;;;14.32;12.60;;;17.50;99.90;;;;;;6098508;23;20013;-67
2023/09/27 02:42:11;;;;;;;14.15;12.48;;;17.50;99.90;;;;;;6097880;23;20017;-67
2023/09/27 02:44:37;;;;;;;14.48;12.07;;;17.00;99.90;;;;;;6098410;23;20024;-68
2023/09/27 02:47:03;;;;;;;13.60;11.80;;;17.00;99.90;;;;;;6097929;23;20214;-67
2023/09/27 02:49:29;;;;;;;13.20;11.52;;;18.00;99.90;;;;;;6072994;23;20077;-67
2023/09/27 02:51:55;;;;;;;15.35;12.95;;;17.30;99.90;;;;;;6098169;23;20045;-67
2023/09/27 02:54:21;;;;;;;14.90;12.57;;;17.30;99.90;;;;;;6097710;23;20026;-67
2023/09/27 02:56:47;;;;;;;14.43;11.88;;;17.70;99.90;;;;;;6098056;23;20017;-67
2023/09/27 02:59:13;;;;;;;13.40;11.38;;;16.90;99.90;;;;;;6123412;23;20056;-67
2023/09/27 03:01:40;;;;;;;13.27;11.52;;;16.80;99.90;;;;;;6098047;23;20088;-67
2023/09/27 03:04:15;;;;;;;15.23;13.07;;;17.60;99.90;;;;;;6098009;23;20085;-67
2023/09/27 03:06:44;;;;;;;19.40;13.13;;;18.10;99.90;;;;;;6098214;23;20501;-67
2023/09/27 03:09:11;;;;;;;13.80;11.98;;;17.40;99.90;;;;;;6096769;23;20040;-67
2023/09/27 03:11:39;;;;;;;13.85;12.18;;;17.40;99.90;;;;;;6123425;23;20010;-67
2023/09/27 03:14:05;;;;;;;13.82;11.13;;;17.20;99.90;;;;;;6123545;23;20097;-67
2023/09/27 03:16:31;;;;;;;14.10;11.75;;;16.90;99.90;;;;;;6122514;23;20018;-67
2023/09/27 03:18:59;;;;;;;12.40;11.10;;;16.90;99.90;;;;;;6097047;23;20064;-67
2023/09/27 03:21:26;;;;;;;13.73;11.88;;;17.70;99.90;;;;;;6123392;23;20010;-67
2023/09/27 03:23:55;;;;;;;13.32;11.77;;;16.80;99.90;;;;;;6097802;23;20100;-68
2023/09/27 03:26:24;;;;;;;13.48;11.10;;;17.90;99.90;;;;;;6096638;23;20025;-67
2023/09/27 03:28:51;;;;;;;13.57;12.13;;;16.90;99.90;;;;;;6096563;23;20085;-67
2023/09/27 03:31:17;;;;;;;14.15;12.65;;;17.40;99.90;;;;;;6122556;23;20018;-67
2023/09/27 03:33:43;;;;;;;13.10;11.70;;;17.30;99.90;;;;;;6123783;23;20085;-67
2023/09/27 03:36:09;;;;;;;13.50;12.10;;;17.20;99.90;;;;;;6096894;23;20111;-67
2023/09/27 03:38:36;;;;;;;13.65;12.25;;;16.70;99.90;;;;;;6096392;23;20010;-67
2023/09/27 03:41:06;;;;;;;14.85;12.88;;;17.00;99.90;;;;;;6096797;23;20402;-68
2023/09/27 03:43:32;;;;;;;18.73;12.23;;;17.10;99.90;;;;;;6073653;23;20010;-67
2023/09/27 03:46:02;;;;;;;13.18;11.77;;;17.10;99.90;;;;;;6123635;23;20046;-67
2023/09/27 03:48:28;;;;;;;13.55;11.90;;;17.60;99.90;;;;;;6072903;23;20018;-70
2023/09/27 03:50:53;;;;;;;15.38;12.63;;;17.20;99.90;;;;;;6096234;23;20025;-67
2023/09/27 03:53:20;;;;;;;15.50;13.35;;;16.70;99.90;;;;;;6122515;23;20014;-67
2023/09/27 03:55:46;;;;;;;16.10;13.23;;;17.40;99.90;;;;;;6097273;23;20020;-67
2023/09/27 03:58:11;;;;;;;14.55;12.93;;;17.50;99.90;;;;;;6122816;23;20081;-67
2023/09/27 04:00:37;;;;;;;15.18;13.55;;;16.40;99.90;;;;;;6096160;23;20014;-67
2023/09/27 04:03:03;;;;;;;14.80;13.23;;;17.90;99.90;;;;;;6097002;23;20010;-67
2023/09/27 04:05:29;;;;;;;15.57;12.60;;;16.90;99.90;;;;;;6072777;23;20017;-67
2023/09/27 04:07:55;;;;;;;14.00;12.38;;;17.10;99.90;;;;;;6071704;23;20018;-67
2023/09/27 04:10:20;;;;;;;15.20;12.85;;;16.90;99.90;;;;;;6120854;23;20017;-70
2023/09/27 04:12:47;;;;;;;13.38;11.88;;;16.60;99.90;;;;;;6095892;23;20052;-67
2023/09/27 04:15:13;;;;;;;15.88;12.90;;;17.20;99.90;;;;;;6095589;23;20014;-67
2023/09/27 04:17:38;;;;;;;14.68;13.07;;;16.20;99.90;;;;;;6094896;23;20018;-67
2023/09/27 04:20:13;;;;;;;15.32;12.55;;;17.30;99.90;;;;;;6095208;23;20035;-67
2023/09/27 04:22:42;;;;;;;13.85;12.52;;;16.70;99.90;;;;;;6095360;23;20024;-67
2023/09/27 04:25:08;;;;;;;14.52;13.00;;;16.90;99.90;;;;;;6096125;23;20360;-67
2023/09/27 04:27:33;;;;;;;14.38;12.88;;;16.60;99.90;;;;;;6122637;23;20451;-67
2023/09/27 04:29:59;;;;;;;16.00;13.00;;;16.90;99.90;;;;;;6096129;23;20069;-67
2023/09/27 04:32:25;;;;;;;14.35;11.93;;;17.10;99.90;;;;;;6123265;23;20021;-67
2023/09/27 04:34:51;;;;;;;14.07;12.57;;;16.60;99.90;;;;;;6123598;23;20014;-67
2023/09/27 04:37:17;;;;;;;13.73;12.30;;;17.10;99.90;;;;;;6121882;23;20321;-67
2023/09/27 04:39:42;;;;;;;14.43;12.30;;;17.00;99.90;;;;;;6096722;23;20467;-67
2023/09/27 04:42:08;;;;;;;16.20;13.48;;;16.80;99.90;;;;;;6073039;23;20021;-66
2023/09/27 04:44:34;;;;;;;16.75;13.70;;;17.80;99.90;;;;;;6122952;23;20024;-67
2023/09/27 04:46:59;;;;;;;19.10;14.57;;;17.40;99.90;;;;;;6123053;23;20076;-66
2023/09/27 04:49:25;;;;;;;20.63;15.18;;;17.10;99.90;;;;;;6095068;23;20024;-67
2023/09/27 04:51:51;;;;;;;19.42;14.13;;;17.70;99.90;;;;;;6096029;23;20025;-67
2023/09/27 04:54:17;;;;;;;19.10;14.70;;;17.00;99.90;;;;;;6121929;23;20017;-67
2023/09/27 04:56:42;;;;;;;20.75;14.80;;;16.70;99.90;;;;;;6090638;23;20018;-68
2023/09/27 04:59:08;;;;;;;22.88;15.57;;;17.10;99.90;;;;;;6120252;23;20014;-68
2023/09/27 05:01:34;;;;;;;20.38;15.07;;;17.80;99.90;;;;;;6094472;23;20018;-68
2023/09/27 05:03:59;;;;;;;19.45;15.20;;;17.40;99.90;;;;;;6122712;23;20018;-68
2023/09/27 05:06:25;;;;;;;20.08;15.43;;;19.30;99.90;;;;;;6124331;23;20010;-68
2023/09/27 05:08:51;;;;;;;22.13;15.60;;;18.10;99.90;;;;;;6093850;23;20092;-68
2023/09/27 05:11:20;;;;;;;19.05;15.07;;;17.10;99.90;;;;;;6121884;23;20041;-68
2023/09/27 05:13:48;;;;;;;19.08;14.38;;;17.10;99.90;;;;;;6071322;23;20014;-68
2023/09/27 05:16:15;;;;;;;17.67;13.60;;;17.10;99.90;;;;;;6122467;23;20080;-68
2023/09/27 05:18:43;;;;;;;19.13;12.98;;;17.90;99.90;;;;;;6094117;23;20010;-68
2023/09/27 05:21:10;;;;;;;16.17;11.35;;;;;;;;;;6087931;23;20018;-68
2023/09/27 05:23:35;;;;;;;13.30;10.30;;;17.40;99.90;;;;;;6092094;23;20036;-68
2023/09/27 05:26:01;;;;;;;13.02;9.77;;;17.20;99.90;;;;;;6122029;23;20405;-68
2023/09/27 05:28:28;;;;;;;11.73;10.10;;;18.00;99.90;;;;;;6095295;23;20053;-68
2023/09/27 05:30:54;;;;;;;12.95;9.77;;;17.20;99.90;;;;;;6118484;23;20009;-68
2023/09/27 05:33:19;;;;;;;10.57;8.63;;;16.90;99.90;;;;;;6121716;23;20020;-68
2023/09/27 05:35:50;;;;;;;11.98;8.27;;;18.00;99.90;;;;;;6096127;23;20050;-68
2023/09/27 05:38:16;;;;;;;9.98;7.80;;;17.80;99.90;;;;;;6119546;23;20014;-68
2023/09/27 05:40:42;;;;;;;11.90;8.00;;;17.90;99.90;;;;;;6071670;23;20025;-68
2023/09/27 05:43:07;;;;;;;10.77;8.38;;;17.70;99.90;;;;;;6095996;23;20014;-68
2023/09/27 05:45:33;;;;;;;9.15;7.88;;;17.00;99.90;;;;;;6122413;23;20029;-68
2023/09/27 05:47:59;;;;;;;10.40;7.95;;;16.80;99.90;;;;;;6121648;23;20052;-68
2023/09/27 05:50:24;;;;;;;10.07;7.55;;;19.00;99.90;;;;;;6095985;23;20410;-68
2023/09/27 05:52:50;;;;;;;12.02;8.57;;;17.60;99.90;;;;;;6120830;23;20041;-68
2023/09/27 05:55:15;;;;;;;18.45;10.77;;;16.70;99.90;;;;;;6095612;23;20022;-68
2023/09/27 05:57:44;;;;;;;21.73;9.93;;;17.70;99.90;;;;;;6120238;23;20440;-68
2023/09/27 06:00:46;;;;;;;14.77;9.27;;;17.30;99.90;;;;;;6094726;23;20020;-68
2023/09/27 06:03:04;;;;;;;13.77;9.43;;;17.80;99.90;;;;;;6093302;23;20025;-68
2023/09/27 06:05:30;;;;;;;12.52;9.05;;;18.00;99.90;;;;;;6121160;23;20081;-68
2023/09/27 06:07:55;;;;;;;10.73;9.18;;;18.00;99.90;;;;;;6122404;23;20045;-68
2023/09/27 06:10:22;;;;;;;11.68;9.30;;;17.60;99.90;;;;;;6095566;23;20029;-68
2023/09/27 06:12:48;;;;;;;13.20;9.60;;;16.90;99.90;;;;;;6121040;23;20013;-68
2023/09/27 06:15:14;;;;;;;13.32;9.63;;;18.00;99.90;;;;;;6095066;23;20037;-68
2023/09/27 06:17:40;;;;;;;13.20;9.65;;;17.00;99.90;;;;;;6071492;23;20448;-68
2023/09/27 06:20:11;;;;;;;11.68;9.88;;;17.50;99.90;;;;;;6096769;23;20452;-68
2023/09/27 06:22:38;;;;;;;12.65;9.13;;;16.90;99.90;;;;;;6096561;23;20017;-68
2023/09/27 06:25:04;;;;;;;12.32;10.13;;;17.90;99.90;;;;;;6121807;23;20064;-68
2023/09/27 06:27:30;;;;;;;10.65;9.23;;;17.20;99.90;;;;;;6123433;23;20010;-68
2023/09/27 06:29:56;;;;;;;11.75;9.80;;;17.50;99.90;;;;;;6124903;23;20113;-68
2023/09/27 06:32:22;;;;;;;15.52;9.57;;;18.20;99.90;;;;;;6115623;23;20020;-68
2023/09/27 06:34:48;;;;;;;10.18;9.02;;;17.20;99.90;;;;;;6123162;23;20101;-68
2023/09/27 06:37:14;;;;;;;12.55;10.38;;;17.50;99.90;;;;;;6122215;23;20056;-68
2023/09/27 06:39:41;;;;;;;13.82;9.68;;;17.30;99.90;;;;;;6122443;23;20423;-68
2023/09/27 06:42:06;;;;;;;12.30;10.30;;;17.40;99.90;;;;;;6124631;23;20115;-68
2023/09/27 06:44:33;;;;;;;11.55;9.73;;;17.70;99.90;;;;;;6124472;23;20096;-68
2023/09/27 06:46:59;;;;;;;12.05;9.13;;;17.90;99.90;;;;;;6122549;23;20028;-68
2023/09/27 06:49:25;;;;;;;13.27;9.85;;;17.00;99.90;;;;;;6124081;23;20085;-68
2023/09/27 06:51:51;;;;;;;12.57;10.02;;;18.20;99.90;;;;;;6124091;23;20084;-70
2023/09/27 06:54:16;;;;;;;13.60;10.50;;;18.40;99.90;;;;;;6122822;23;20026;-68
2023/09/27 06:56:42;;;;;;;13.80;10.73;;;17.80;99.90;;;;;;6098131;23;20014;-68
2023/09/27 06:59:08;;;;;;;14.77;11.27;;;18.10;99.90;;;;;;6122297;23;20014;-68
2023/09/27 07:01:33;;;;;;;11.93;10.63;;;17.60;99.90;;;;;;6123679;23;20013;-68
2023/09/27 07:04:03;;;;;;;11.77;10.32;;;17.10;99.90;;;;;;6122676;23;20021;-67
2023/09/27 07:06:29;;;;;;;12.07;10.15;;;17.40;99.90;;;;;;6122643;23;20018;-68
2023/09/27 07:08:57;;;;;;;10.45;9.15;;;17.70;99.90;;;;;;6123744;23;20017;-68
2023/09/27 07:11:23;;;;;;;12.73;9.20;;;18.40;99.90;;;;;;6124308;23;20010;-67
2023/09/27 07:13:50;;;;;;;12.02;10.25;;;18.20;99.90;;;;;;6123831;23;20448;-68
2023/09/27 07:16:28;;;;;;;15.32;12.40;;;17.20;99.90;;;;;;6122345;23;20013;-68
2023/09/27 07:18:53;;;;;;;14.05;12.05;;;18.10;99.90;;;;;;6123332;23;20025;-68
2023/09/27 07:21:23;;;;;;;14.60;11.88;;;17.40;99.90;;;;;;6122191;23;20355;-68
2023/09/27 07:23:51;;;;;;;13.60;11.68;;;17.70;99.90;;;;;;6124157;23;20049;-67
2023/09/27 07:26:17;;;;;;;14.55;10.85;;;18.30;99.90;;;;;;6122409;23;20026;-67
2023/09/27 07:28:45;;;;;;;12.75;10.90;;;18.50;99.90;;;;;;6097052;23;20018;-67
2023/09/27 07:31:14;;;;;;;13.57;10.20;;;18.10;99.90;;;;;;6123681;23;20014;-68
2023/09/27 07:33:40;;;;;;;11.57;9.30;;;18.30;99.90;;;;;;6123813;23;20070;-68
2023/09/27 07:36:08;;;;;;;10.52;8.07;;;18.30;99.90;;;;;;6097727;23;20014;-68
2023/09/27 07:38:37;;;;;;;9.10;4.78;;;18.40;99.90;;;;;;6123487;23;20025;-68
2023/09/27 07:41:04;;;;;;;10.30;6.25;;;18.00;99.90;;;;;;6123892;23;20014;-68
2023/09/27 07:43:30;;;;;;;12.38;8.18;;;18.20;99.90;;;;;;6098096;23;20021;-68
2023/09/27 07:45:56;;;;;;;11.30;8.70;;;18.30;99.90;;;;;;6123864;23;20010;-68
2023/09/27 07:48:24;;;;;;;13.15;9.73;;;17.70;99.90;;;;;;6123313;23;20024;-68
2023/09/27 07:50:50;;;;;;;9.65;5.60;;;18.60;99.90;;;;;;6097379;23;20020;-68
2023/09/27 07:53:16;;;;;;;10.65;6.53;;;18.50;99.90;;;;;;6097757;23;20088;-67
2023/09/27 07:55:46;;;;;;;7.70;4.70;;;18.30;99.90;;;;;;6097097;23;20080;-68
2023/09/27 07:58:15;;;;;;;8.15;4.85;;;18.60;99.90;;;;;;6097184;23;20010;-68
2023/09/27 08:00:41;;;;;;;8.25;4.68;;;18.50;99.90;;;;;;6123728;23;20014;-68
2023/09/27 08:03:10;;;;;;;7.88;5.22;;;18.20;99.90;;;;;;6073614;23;20010;-68
2023/09/27 08:05:43;;;;;;;7.68;4.88;;;18.50;99.90;;;;;;6124119;23;20344;-68
2023/09/27 08:08:16;;;;;;;8.80;5.88;;;18.40;99.90;;;;;;6073844;23;20022;-69
2023/09/27 08:10:47;;;;;;;6.85;4.25;;;17.60;99.90;;;;;;6097530;23;20024;-68
2023/09/27 08:13:17;;;;;;;7.80;4.63;;;18.30;99.90;;;;;;6123750;23;20084;-68
2023/09/27 08:15:44;;;;;;;6.70;4.18;;;18.70;99.90;;;;;;6097442;23;20022;-68
2023/09/27 08:18:10;;;;;;;7.72;3.88;;;18.50;99.90;;;;;;6123147;23;20355;-68
2023/09/27 08:20:36;;;;;;;10.68;7.80;;;18.50;99.90;;;;;;6073290;23;20013;-68
2023/09/27 08:23:04;;;;;;;7.25;4.30;;;18.80;99.90;;;;;;6097053;23;20021;-68
2023/09/27 08:25:30;;;;;;;9.18;6.28;;;18.70;99.90;;;;;;6097615;23;20366;-68
2023/09/27 08:27:56;;;;;;;8.88;5.88;;;18.90;99.90;;;;;;6123008;23;20324;-68
2023/09/27 08:30:22;;;;;;;6.88;4.55;;;17.90;99.90;;;;;;6073732;23;20041;-68
2023/09/27 08:32:48;;;;;;;7.03;4.47;;;19.00;99.90;;;;;;6119646;23;20064;-68
2023/09/27 08:35:13;;;;;;;6.80;4.45;;;18.50;99.90;;;;;;6123132;23;20028;-68
2023/09/27 08:37:39;;;;;;;9.27;6.53;;;18.70;99.90;;;;;;6097054;23;20014;-68
2023/09/27 08:40:13;;;;;;;8.15;5.15;;;18.50;99.90;;;;;;6121385;23;20510;-68
2023/09/27 08:42:40;;;;;;;9.27;4.93;;;18.90;99.90;;;;;;6122085;23;20021;-68
2023/09/27 08:45:11;;;;;;;8.07;4.97;;;18.50;99.90;;;;;;6121103;23;20014;-68
2023/09/27 08:47:41;;;;;;;8.70;4.78;;;18.80;99.90;;;;;;6120412;23;20459;-68
2023/09/27 08:50:06;;;;;;;7.40;4.47;;;18.40;99.90;;;;;;6121311;23;20403;-68
2023/09/27 08:52:33;;;;;;;8.07;4.38;;;18.40;99.90;;;;;;6121492;23;20022;-68
2023/09/27 08:54:59;;;;;;;10.02;4.25;;;18.60;99.90;;;;;;6121575;23;20018;-68
2023/09/27 08:57:28;;;;;;;6.95;4.47;;;18.50;99.90;;;;;;6122358;23;20021;-68
2023/09/27 08:59:55;;;;;;;7.68;4.70;;;18.10;99.90;;;;;;6121631;23;20473;-68
2023/09/27 09:02:23;;;;;;;7.40;4.95;;;18.70;99.90;;;;;;6122048;23;20021;-68
2023/09/27 09:04:50;;;;;;;6.68;4.15;;;19.10;99.90;;;;;;6121617;23;20022;-68
2023/09/27 09:07:15;;;;;;;9.63;4.68;;;18.10;99.90;;;;;;6122951;23;20065;-68
2023/09/27 09:09:41;;;;;;;7.38;3.95;;;18.70;99.90;;;;;;6123160;23;20010;-68
2023/09/27 09:12:09;;;;;;;6.47;4.10;;;18.60;99.90;;;;;;6121191;23;20052;-68
2023/09/27 09:14:44;;;;;;;6.47;3.92;;;18.60;99.90;;;;;;6121710;23;20085;-68
2023/09/27 09:17:11;;;;;;;6.70;3.95;;;18.00;99.90;;;;;;6120186;23;20461;-68
2023/09/27 09:19:38;;;;;;;7.47;3.80;;;18.60;99.90;;;;;;6097511;23;20014;-68
2023/09/27 09:22:09;;;;;;;7.57;4.25;;;18.70;99.90;;;;;;6121844;23;20024;-69
2023/09/27 09:24:36;;;;;;;6.82;3.42;;;19.10;99.90;;;;;;6123627;23;20022;-68
2023/09/27 09:27:10;;;;;;;6.22;3.55;;;18.70;99.90;;;;;;6097223;23;20018;-68
2023/09/27 09:29:48;;;;;;;6.10;3.15;;;18.80;99.90;;;;;;6121584;23;20010;-68
2023/09/27 09:32:21;;;;;;;6.38;3.50;;;18.90;99.90;;;;;;6121368;23;20037;-68
2023/09/27 09:34:54;;;;;;;6.32;4.18;;;18.50;99.90;;;;;;6097101;23;20025;-69
2023/09/27 09:37:23;;;;;;;8.40;4.05;;;18.90;99.90;;;;;;6122346;23;20006;-68
2023/09/27 09:39:51;;;;;;;8.27;4.03;;;18.30;99.90;;;;;;6121473;23;20424;-68
2023/09/27 09:42:33;;;;;;;7.25;3.30;;;18.90;99.90;;;;;;6121537;23;20413;-68
2023/09/27 09:45:06;;;;;;;6.05;3.50;;;19.00;99.90;;;;;;6097073;23;20163;-68
2023/09/27 09:47:35;;;;;;;5.90;3.40;;;18.70;99.90;;;;;;6073689;23;20014;-68
2023/09/27 09:50:06;;;;;;;6.97;3.97;;;19.00;99.90;;;;;;6121097;23;20021;-68
2023/09/27 09:52:35;;;;;;;6.10;3.60;;;18.80;99.90;;;;;;6123379;23;20070;-68
2023/09/27 09:55:06;;;;;;;5.78;3.38;;;18.90;99.90;;;;;;6122968;23;20096;-68
2023/09/27 09:57:36;;;;;;;7.38;3.92;;;18.90;99.90;;;;;;6120903;23;20020;-68
2023/09/27 10:00:16;;;;;;;5.55;3.58;;;19.20;99.90;;;;;;6124074;23;20090;-68
2023/09/27 10:02:50;;;;;;;7.30;3.90;;;18.80;99.90;;;;;;6099008;23;20421;-68
2023/09/27 10:05:21;;;;;;;6.95;3.63;;;19.00;99.90;;;;;;6125306;23;20018;-68
2023/09/27 10:07:48;;;;;;;7.55;4.13;;;19.30;99.90;;;;;;6124264;23;20039;-68
2023/09/27 10:10:17;;;;;;;6.40;3.63;;;18.90;99.90;;;;;;6125069;23;20010;-68
2023/09/27 10:12:45;;;;;;;6.85;3.80;;;18.20;99.90;;;;;;6098766;23;20010;-68
2023/09/27 10:15:11;;;;;;;7.07;3.80;;;18.80;99.90;;;;;;6124967;23;20014;-68
2023/09/27 10:17:37;;;;;;;8.77;4.18;;;18.60;99.90;;;;;;6124345;23;20006;-68
2023/09/27 10:20:24;;;;;;;8.73;3.97;;;19.30;99.90;;;;;;6122910;23;20122;-68
2023/09/27 10:22:52;;;;;;;8.15;4.00;;;18.70;99.90;;;;;;6098828;23;20044;-68
2023/09/27 10:25:23;;;;;;;7.55;4.10;;;19.00;99.90;;;;;;6123084;23;20356;-68
2023/09/27 10:28:01;;;;;;;6.95;3.58;;;19.00;99.90;;;;;;6122513;23;20020;-68
2023/09/27 10:30:44;;;;;;;8.63;4.18;;;18.90;99.90;;;;;;6123135;23;20022;-68
2023/09/27 10:33:15;;;;;;;8.25;4.32;;;18.70;99.90;;;;;;6122879;23;20093;-68
2023/09/27 10:35:44;;;;;;;7.30;4.10;;;19.00;99.90;;;;;;6123218;23;20499;-68
2023/09/27 10:38:10;;;;;;;6.72;3.55;;;19.10;99.90;;;;;;6122152;23;20017;-68
2023/09/27 10:40:46;;;;;;;6.45;3.75;;;18.50;99.90;;;;;;6123314;23;20052;-68
2023/09/27 10:43:30;;;;;;;7.70;3.58;;;19.00;99.90;;;;;;6124188;23;20010;-68
2023/09/27 10:45:56;;;;;;;6.38;3.65;;;19.00;99.90;;;;;;6122697;23;20053;-68
2023/09/27 10:48:22;;;;;;;7.82;3.67;;;18.90;99.90;;;;;;6124437;23;20021;-68
2023/09/27 10:50:56;;;;;;;8.05;4.30;;;18.90;99.90;;;;;;6123150;23;20053;-68
2023/09/27 10:53:22;;;;;;;7.45;3.70;;;19.00;99.90;;;;;;6122848;23;20094;-68
2023/09/27 10:55:49;;;;;;;6.78;4.00;;;18.80;99.90;;;;;;6123524;23;20071;-68
2023/09/27 10:58:17;;;;;;;6.70;3.70;;;18.90;99.90;;;;;;6122816;23;20547;-68
2023/09/27 11:00:54;;;;;;;7.50;4.10;;;19.30;99.90;;;;;;6123677;23;20014;-68
2023/09/27 11:03:21;;;;;;;7.05;3.65;;;18.50;99.90;;;;;;6125518;23;20010;-68
2023/09/27 11:05:47;;;;;;;8.45;4.20;;;18.90;99.90;;;;;;6099987;23;20009;-68
2023/09/27 11:08:22;;;;;;;7.32;3.80;;;18.70;99.90;;;;;;6122089;23;20013;-68
2023/09/27 11:10:49;;;;;;;6.13;3.53;;;19.00;99.90;;;;;;6122954;23;20018;-69
2023/09/27 11:13:14;;;;;;;8.48;4.20;;;18.80;99.90;;;;;;6122409;23;20036;-69
2023/09/27 11:15:41;;;;;;;9.80;4.18;;;18.90;99.90;;;;;;6124363;23;20356;-68
2023/09/27 11:18:08;;;;;;;8.65;4.18;;;18.90;99.90;;;;;;6121969;23;20022;-68
2023/09/27 11:20:34;;;;;;;6.53;3.63;;;19.50;99.90;;;;;;6122304;23;20029;-68
2023/09/27 11:23:03;;;;;;;8.10;3.80;;;19.50;99.90;;;;;;6122563;23;20014;-68
2023/09/27 11:25:31;;;;;;;8.43;4.05;;;19.20;99.90;;;;;;6124615;23;20032;-68
2023/09/27 11:27:57;;;;;;;8.38;3.80;;;18.90;99.90;;;;;;6097726;23;20618;-68
2023/09/27 11:30:30;;;;;;;6.82;3.95;;;19.00;99.90;;;;;;6124083;23;20021;-67
2023/09/27 11:33:05;;;;;;;7.10;3.47;;;19.20;99.90;;;;;;6097772;23;20072;-68
2023/09/27 11:35:31;;;;;;;6.45;3.97;;;18.80;99.90;;;;;;6122703;23;20566;-67
2023/09/27 11:38:04;;;;;;;7.15;3.65;;;19.50;99.90;;;;;;6123693;23;20032;-69
2023/09/27 11:40:34;;;;;;;7.93;3.53;;;18.80;99.90;;;;;;6098354;23;20013;-68
2023/09/27 11:43:01;;;;;;;8.60;4.28;;;19.10;99.90;;;;;;6122306;23;20088;-68
2023/09/27 11:45:26;;;;;;;8.25;3.65;;;19.10;99.90;;;;;;6122133;23;20364;-67
2023/09/27 11:47:52;;;;;;;7.55;3.70;;;19.00;99.90;;;;;;6123148;23;20018;-68
2023/09/27 11:50:19;;;;;;;6.68;3.90;;;19.20;99.90;;;;;;6123604;23;20014;-67
2023/09/27 11:52:46;;;;;;;6.60;3.80;;;19.20;99.90;;;;;;6122198;23;20448;-68
2023/09/27 11:55:13;;;;;;;7.85;3.75;;;19.20;99.90;;;;;;6121758;23;20025;-68
2023/09/27 11:57:42;;;;;;;7.47;3.80;;;19.00;99.90;;;;;;6123126;23;20046;-67
2023/09/27 12:00:10;;;;;;;7.28;3.83;;;18.80;99.90;;;;;;6123405;23;20018;-67
2023/09/27 12:02:36;;;;;;;7.47;3.75;;;18.80;99.90;;;;;;6098497;23;20343;-68
2023/09/27 12:05:04;;;;;;;7.82;4.40;;;19.30;99.90;;;;;;6122394;23;20089;-67
2023/09/27 12:07:33;;;;;;;10.88;4.45;;;19.20;99.90;;;;;;6122740;23;20025;-68
2023/09/27 12:10:01;;;;;;;7.93;3.92;;;19.00;99.90;;;;;;6124042;23;20014;-68
2023/09/27 12:12:27;;;;;;;6.88;3.60;;;18.90;99.90;;;;;;6122656;23;20021;-68
2023/09/27 12:14:53;;;;;;;8.73;4.50;;;19.10;99.90;;;;;;6122191;23;20010;-68
2023/09/27 12:17:19;;;;;;;7.72;3.78;;;19.30;99.90;;;;;;6121423;23;20010;-67
2023/09/27 12:19:45;;;;;;;7.35;3.85;;;19.10;99.90;;;;;;6122308;23;20018;-68
2023/09/27 12:22:13;;;;;;;8.25;4.03;;;19.10;99.90;;;;;;6121215;23;20061;-68
2023/09/27 12:24:39;;;;;;;9.32;4.80;;;19.00;99.90;;;;;;6124176;23;20013;-68
2023/09/27 12:27:05;;;;;;;7.95;3.97;;;19.30;99.90;;;;;;6123454;23;20347;-68
2023/09/27 12:29:30;;;;;;;8.43;3.65;;;19.20;99.90;;;;;;6121806;23;20081;-68
2023/09/27 12:31:56;;;;;;;7.45;3.25;;;19.30;99.90;;;;;;6123945;23;20014;-68
2023/09/27 12:34:22;;;;;;;6.05;3.47;;;19.10;99.90;;;;;;6097260;23;20017;-68
2023/09/27 12:36:48;;;;;;;7.45;3.70;;;19.20;99.90;;;;;;6123822;23;20010;-67